Time;durP1;ratioP1;P1;durP2;ratioP2;P2;SDS_P1;SDS_P2;PMS_P1;PMS_P2;Temp;Humidity;BMP_temperature;BMP_pressure;BME280_temperature;BME280_humidity;BME280_pressure;Samples;Min_cycle;Max_cycle;Signal;HPM_P1;HPM_P2
2021/06/01 00:01:15;;;;;;;0.40;0.30;;;20.30;45.10;;;;;;5035787;28;20026;-81
2021/06/01 00:03:41;;;;;;;0.57;0.35;;;20.20;44.60;;;;;;5030375;28;20083;-81
2021/06/01 00:06:09;;;;;;;0.30;0.20;;;20.20;45.10;;;;;;5027326;28;20033;-81
2021/06/01 00:08:35;;;;;;;0.38;0.30;;;20.10;44.80;;;;;;5030422;28;20057;-81
2021/06/01 00:11:01;;;;;;;0.50;0.30;;;20.00;44.20;;;;;;5027170;28;20040;-81
2021/06/01 00:13:27;;;;;;;0.30;0.28;;;19.90;44.70;;;;;;5027561;28;20067;-81
2021/06/01 00:15:53;;;;;;;0.60;0.38;;;19.90;45.10;;;;;;5030998;28;20056;-81
2021/06/01 00:18:19;;;;;;;0.30;0.20;;;19.90;45.20;;;;;;5029337;28;20058;-80
2021/06/01 00:20:44;;;;;;;0.73;0.28;;;20.00;45.10;;;;;;5030697;28;20033;-81
2021/06/01 00:23:10;;;;;;;0.75;0.30;;;19.90;44.90;;;;;;5027445;28;20384;-81
2021/06/01 00:25:36;;;;;;;1.13;0.30;;;20.00;45.00;;;;;;5031416;28;20030;-81
2021/06/01 00:28:01;;;;;;;0.45;0.30;;;20.00;45.10;;;;;;5033189;28;20032;-81
2021/06/01 00:30:27;;;;;;;0.50;0.30;;;19.90;45.00;;;;;;5030971;28;20025;-81
2021/06/01 00:32:53;;;;;;;0.25;0.20;;;19.90;45.10;;;;;;5037041;28;20037;-81
2021/06/01 00:35:19;;;;;;;0.40;0.30;;;19.90;45.20;;;;;;5034903;28;20025;-81
2021/06/01 00:37:44;;;;;;;0.40;0.30;;;19.90;45.30;;;;;;5029269;28;20038;-81
2021/06/01 00:40:37;;;;;;;0.40;0.30;;;19.80;44.80;;;;;;5016760;28;20018;-81
2021/06/01 00:43:03;;;;;;;0.43;0.30;;;19.80;45.30;;;;;;5016785;28;20041;-81
2021/06/01 00:45:29;;;;;;;0.50;0.30;;;19.80;45.20;;;;;;5016480;28;20025;-81
2021/06/01 00:47:55;;;;;;;0.25;0.20;;;19.70;45.60;;;;;;5016115;28;20048;-81
2021/06/01 00:50:26;;;;;;;0.32;0.30;;;19.70;45.70;;;;;;5025758;28;20498;-81
2021/06/01 00:52:53;;;;;;;0.30;0.20;;;19.70;46.00;;;;;;5020681;28;20054;-81
2021/06/01 00:55:19;;;;;;;0.40;0.30;;;19.70;45.50;;;;;;5016260;28;20404;-81
2021/06/01 00:57:45;;;;;;;0.40;0.30;;;19.70;45.40;;;;;;5015477;28;20065;-81
2021/06/01 01:03:23;;;;;;;0.30;0.30;;;19.60;45.90;;;;;;5016389;28;20029;-81
2021/06/01 01:05:51;;;;;;;0.70;0.22;;;19.60;46.00;;;;;;5014526;28;20030;-81
2021/06/01 01:11:30;;;;;;;0.38;0.28;;;19.50;45.60;;;;;;5015907;28;20034;-81
2021/06/01 01:14:20;;;;;;;0.30;0.20;;;19.50;46.20;;;;;;5016083;28;20034;-81
2021/06/01 01:16:53;;;;;;;0.40;0.20;;;19.50;45.70;;;;;;5004134;28;20045;-81
2021/06/01 01:20:01;;;;;;;;;;;;;;;;;;;;;
2021/06/01 01:22:29;;;;;;;0.30;0.20;;;19.50;45.90;;;;;;5034292;28;20125;-81
2021/06/01 01:25:10;;;;;;;0.30;0.20;;;19.40;45.60;;;;;;5027339;28;20443;-81
2021/06/01 01:28:30;;;;;;;0.32;0.30;;;19.40;45.70;;;;;;5023088;28;20113;-81
2021/06/01 01:31:07;;;;;;;0.20;0.17;;;19.40;46.00;;;;;;5016510;28;20527;-81
2021/06/01 01:33:38;;;;;;;0.20;0.20;;;19.40;46.50;;;;;;5022738;28;20803;-81
2021/06/01 01:36:07;;;;;;;0.22;0.20;;;19.30;46.30;;;;;;5014526;28;20037;-81
2021/06/01 01:38:35;;;;;;;0.25;0.20;;;19.30;46.30;;;;;;5018513;28;20113;-81
2021/06/01 01:41:06;;;;;;;0.47;0.22;;;19.20;46.60;;;;;;5015654;28;20380;-81
2021/06/01 01:43:34;;;;;;;0.68;0.30;;;19.20;46.70;;;;;;5014859;28;20435;-81
2021/06/01 01:46:10;;;;;;;0.40;0.28;;;19.30;46.80;;;;;;5015426;28;20025;-82
2021/06/01 01:49:00;;;;;;;0.30;0.20;;;19.20;46.60;;;;;;5015422;28;20135;-81
2021/06/01 01:51:32;;;;;;;0.40;0.30;;;19.30;46.40;;;;;;5030833;28;20112;-81
2021/06/01 01:56:50;;;;;;;0.20;0.20;;;19.30;46.50;;;;;;5034722;28;20026;-81
2021/06/01 01:59:19;;;;;;;0.40;0.30;;;19.20;46.70;;;;;;5033665;28;20117;-81
2021/06/01 02:01:48;;;;;;;0.30;0.23;;;19.20;46.80;;;;;;5035110;28;20326;-81
2021/06/01 02:04:26;;;;;;;0.40;0.30;;;19.10;46.60;;;;;;5034472;28;20078;-81
2021/06/01 02:06:53;;;;;;;0.68;0.30;;;19.10;47.10;;;;;;5035331;28;20025;-81
2021/06/01 02:09:18;;;;;;;0.68;0.30;;;19.00;46.90;;;;;;5025078;28;20066;-81
2021/06/01 02:11:47;;;;;;;0.30;0.20;;;19.00;46.80;;;;;;5019421;28;20026;-81
2021/06/01 02:14:13;;;;;;;0.38;0.20;;;19.00;47.00;;;;;;5019249;28;20037;-82
2021/06/01 02:16:41;;;;;;;0.50;0.30;;;19.10;47.00;;;;;;5019384;28;20026;-82
2021/06/01 02:19:10;;;;;;;0.30;0.30;;;19.00;47.30;;;;;;5019133;28;20017;-81
2021/06/01 02:24:29;;;;;;;0.40;0.20;;;18.90;47.50;;;;;;5019239;28;20049;-81
2021/06/01 02:26:55;;;;;;;0.45;0.28;;;18.90;47.50;;;;;;5021005;28;20014;-81
2021/06/01 02:29:47;;;;;;;0.50;0.30;;;18.90;47.10;;;;;;5038818;28;20029;-81
2021/06/01 02:32:15;;;;;;;1.75;0.50;;;18.90;47.40;;;;;;5019109;28;20496;-81
2021/06/01 02:34:43;;;;;;;0.22;0.20;;;18.80;47.70;;;;;;5019183;28;20119;-81
2021/06/01 02:37:09;;;;;;;0.30;0.20;;;18.80;47.30;;;;;;5020435;28;20029;-81
2021/06/01 02:40:06;;;;;;;;;;;;;;;;;;;;;
2021/06/01 02:42:32;;;;;;;0.90;0.30;;;18.80;47.30;;;;;;5020495;28;20112;-82
2021/06/01 02:44:58;;;;;;;0.20;0.20;;;18.80;47.80;;;;;;5020306;28;20049;-81
2021/06/01 02:47:23;;;;;;;0.20;0.20;;;18.70;48.00;;;;;;5025013;28;20026;-81
2021/06/01 02:49:50;;;;;;;0.20;0.20;;;18.60;47.70;;;;;;5017267;28;20033;-81
2021/06/01 02:52:17;;;;;;;0.30;0.20;;;18.60;48.60;;;;;;5033688;28;20054;-81
2021/06/01 02:54:43;;;;;;;0.40;0.30;;;18.60;48.60;;;;;;5018326;28;20022;-81
2021/06/01 02:57:12;;;;;;;0.30;0.20;;;18.60;48.20;;;;;;5017244;28;20030;-81
2021/06/01 02:59:40;;;;;;;0.20;0.20;;;18.60;48.40;;;;;;5018233;28;20389;-81
2021/06/01 03:02:05;;;;;;;0.20;0.20;;;18.60;48.40;;;;;;5018411;28;20026;-81
2021/06/01 03:04:32;;;;;;;0.28;0.20;;;18.60;47.90;;;;;;5017757;28;20519;-81
2021/06/01 03:06:59;;;;;;;0.30;0.20;;;18.60;47.90;;;;;;5017816;28;20022;-81
2021/06/01 03:09:24;;;;;;;0.40;0.30;;;18.60;48.30;;;;;;5018031;28;20026;-81
2021/06/01 03:11:51;;;;;;;0.30;0.20;;;18.50;48.60;;;;;;5018321;28;20030;-81
2021/06/01 03:14:16;;;;;;;0.38;0.30;;;18.50;48.60;;;;;;5018261;28;20496;-81
2021/06/01 03:16:42;;;;;;;0.40;0.30;;;18.30;48.30;;;;;;5031139;28;20029;-81
2021/06/01 03:19:08;;;;;;;0.20;0.20;;;18.20;48.50;;;;;;5036580;28;20032;-81
2021/06/01 03:21:35;;;;;;;0.22;0.20;;;18.20;49.10;;;;;;5024000;28;20033;-81
2021/06/01 03:24:00;;;;;;;0.30;0.30;;;18.30;49.20;;;;;;5017979;28;20120;-81
2021/06/01 03:26:26;;;;;;;0.30;0.20;;;18.30;49.10;;;;;;5016985;28;20062;-81
2021/06/01 03:28:52;;;;;;;0.20;0.20;;;18.30;48.90;;;;;;5032912;28;20043;-81
2021/06/01 03:31:18;;;;;;;0.40;0.30;;;18.20;48.70;;;;;;5037692;28;20026;-81
2021/06/01 03:33:43;;;;;;;0.32;0.20;;;18.10;49.40;;;;;;5035999;28;20083;-82
2021/06/01 03:36:09;;;;;;;0.30;0.20;;;18.10;49.00;;;;;;5035194;28;20033;-82
2021/06/01 03:38:36;;;;;;;0.55;0.32;;;18.10;49.00;;;;;;5037676;28;20381;-81
2021/06/01 03:41:04;;;;;;;0.40;0.30;;;18.10;49.00;;;;;;5037502;28;20476;-82
2021/06/01 03:43:29;;;;;;;0.20;0.20;;;18.00;49.20;;;;;;5037663;28;20033;-82
2021/06/01 03:45:55;;;;;;;0.40;0.30;;;18.00;49.10;;;;;;5021272;28;20581;-81
2021/06/01 03:48:21;;;;;;;0.30;0.30;;;18.10;49.50;;;;;;5017703;28;20059;-82
2021/06/01 03:50:47;;;;;;;0.22;0.20;;;18.10;49.40;;;;;;5017439;28;20503;-81
2021/06/01 03:53:12;;;;;;;0.30;0.20;;;18.10;49.10;;;;;;5021427;28;20041;-81
2021/06/01 03:55:38;;;;;;;0.20;0.20;;;18.00;48.70;;;;;;5046944;28;20028;-81
2021/06/01 03:58:03;;;;;;;0.35;0.30;;;18.00;49.30;;;;;;5037286;28;20103;-81
2021/06/01 04:00:30;;;;;;;0.30;0.28;;;17.90;49.40;;;;;;5036175;28;20030;-81
2021/06/01 04:02:57;;;;;;;0.38;0.28;;;17.80;49.60;;;;;;5037051;28;20049;-81
2021/06/01 04:05:26;;;;;;;0.40;0.30;;;17.90;49.60;;;;;;5037081;28;20032;-81
2021/06/01 04:07:52;;;;;;;0.30;0.20;;;17.90;49.50;;;;;;5026487;28;20061;-81
2021/06/01 04:10:18;;;;;;;0.40;0.20;;;17.90;49.90;;;;;;5016689;28;20034;-81
2021/06/01 04:12:44;;;;;;;0.30;0.30;;;18.00;49.50;;;;;;5019433;28;20107;-81
2021/06/01 04:15:11;;;;;;;0.30;0.30;;;18.00;49.20;;;;;;5037107;28;20028;-82
2021/06/01 04:17:36;;;;;;;0.20;0.20;;;17.90;49.20;;;;;;5025958;28;20033;-81
2021/06/01 04:20:04;;;;;;;0.28;0.20;;;17.90;48.90;;;;;;5016874;28;20042;-81
2021/06/01 04:22:30;;;;;;;0.30;0.25;;;17.90;49.20;;;;;;5016716;28;20032;-81
2021/06/01 04:24:56;;;;;;;0.30;0.25;;;18.00;49.30;;;;;;5016704;28;20473;-81
2021/06/01 04:27:21;;;;;;;0.30;0.30;;;18.00;49.20;;;;;;5022134;28;20026;-81
2021/06/01 04:29:47;;;;;;;0.50;0.32;;;18.00;48.80;;;;;;5036593;28;20491;-81
2021/06/01 04:32:13;;;;;;;0.20;0.20;;;18.00;48.70;;;;;;5027167;28;20034;-81
2021/06/01 04:34:38;;;;;;;0.30;0.20;;;18.00;48.80;;;;;;5014992;28;20033;-82
2021/06/01 04:37:05;;;;;;;0.38;0.30;;;18.00;48.70;;;;;;5016610;28;20535;-82
2021/06/01 04:39:31;;;;;;;0.20;0.20;;;18.10;48.90;;;;;;5016661;28;20041;-82
2021/06/01 04:41:56;;;;;;;0.25;0.25;;;18.10;48.40;;;;;;5016624;28;20384;-82
2021/06/01 04:44:22;;;;;;;0.30;0.20;;;18.10;48.50;;;;;;5016166;28;20084;-83
2021/06/01 04:46:48;;;;;;;0.40;0.30;;;18.10;48.40;;;;;;5014927;28;20485;-78
2021/06/01 04:49:14;;;;;;;0.32;0.28;;;18.20;48.60;;;;;;5016356;28;20022;-82
2021/06/01 04:51:39;;;;;;;0.25;0.20;;;18.20;48.20;;;;;;5016136;28;20041;-81
2021/06/01 04:54:05;;;;;;;0.30;0.20;;;18.20;48.70;;;;;;5016444;28;20025;-80
2021/06/01 04:56:31;;;;;;;0.35;0.30;;;18.30;48.00;;;;;;5016243;28;20060;-80
2021/06/01 04:58:57;;;;;;;0.30;0.30;;;18.20;48.40;;;;;;5015148;28;20502;-81
2021/06/01 05:01:23;;;;;;;0.20;0.20;;;18.20;48.50;;;;;;5031231;28;20034;-84
2021/06/01 05:03:49;;;;;;;0.55;0.30;;;18.30;48.60;;;;;;5031371;28;20057;-82
2021/06/01 05:06:16;;;;;;;0.60;0.30;;;18.30;48.70;;;;;;5027249;28;20048;-82
2021/06/01 05:08:43;;;;;;;0.32;0.30;;;18.30;49.00;;;;;;5035556;28;20017;-80
2021/06/01 05:11:09;;;;;;;0.40;0.30;;;18.30;48.80;;;;;;5016276;28;20030;-86
2021/06/01 05:13:34;;;;;;;0.30;0.28;;;18.30;48.80;;;;;;5014885;28;20114;-86
2021/06/01 05:16:00;;;;;;;0.35;0.22;;;18.30;49.40;;;;;;5016807;28;20112;-86
2021/06/01 05:18:25;;;;;;;0.35;0.30;;;18.40;49.00;;;;;;5028487;28;20151;-85
2021/06/01 05:20:51;;;;;;;0.40;0.30;;;18.40;48.90;;;;;;5034316;28;20030;-88
2021/06/01 05:23:17;;;;;;;0.30;0.20;;;18.40;48.80;;;;;;5032357;28;20037;-82
2021/06/01 05:25:46;;;;;;;0.40;0.30;;;18.40;49.40;;;;;;5031925;28;20060;-79
2021/06/01 05:28:12;;;;;;;0.22;0.20;;;18.50;49.40;;;;;;5028519;28;20069;-79
2021/06/01 05:33:36;;;;;;;0.50;0.30;;;18.50;49.10;;;;;;5021483;28;20038;-81
2021/06/01 05:36:02;;;;;;;0.50;0.30;;;18.50;49.50;;;;;;5020157;28;20115;-84
2021/06/01 05:38:30;;;;;;;0.28;0.28;;;18.60;49.10;;;;;;5021797;28;20014;-81
2021/06/01 05:40:56;;;;;;;0.50;0.30;;;18.60;49.60;;;;;;5022562;28;20544;-83
2021/06/01 05:43:22;;;;;;;0.50;0.30;;;18.50;48.90;;;;;;5024716;28;20050;-84
2021/06/01 05:45:49;;;;;;;0.43;0.30;;;18.60;49.60;;;;;;5025098;28;20070;-82
2021/06/01 05:48:15;;;;;;;0.30;0.25;;;18.60;49.40;;;;;;5023645;28;20018;-83
2021/06/01 05:50:42;;;;;;;0.30;0.28;;;18.60;49.20;;;;;;5024737;28;20079;-83
2021/06/01 05:53:09;;;;;;;0.32;0.25;;;18.70;49.20;;;;;;5023226;28;20033;-88
2021/06/01 05:55:37;;;;;;;0.87;0.37;;;18.80;49.10;;;;;;5022628;28;20536;-82
2021/06/01 05:58:04;;;;;;;0.73;0.35;;;18.80;49.10;;;;;;5020566;28;20061;-82
2021/06/01 06:00:33;;;;;;;0.43;0.30;;;18.70;49.30;;;;;;5021989;28;20025;-84
2021/06/01 06:03:01;;;;;;;0.40;0.30;;;18.80;49.20;;;;;;5020349;28;20171;-84
2021/06/01 06:05:27;;;;;;;0.40;0.20;;;18.90;49.20;;;;;;5013893;28;20088;-79
2021/06/01 06:07:53;;;;;;;0.25;0.20;;;18.90;48.40;;;;;;5025105;28;20033;-79
2021/06/01 06:10:18;;;;;;;0.30;0.20;;;19.00;48.60;;;;;;5034384;28;20030;-79
2021/06/01 06:12:46;;;;;;;0.45;0.30;;;19.00;48.80;;;;;;5028767;28;20778;-78
2021/06/01 06:15:16;;;;;;;0.35;0.28;;;19.00;48.40;;;;;;5044274;28;20017;-78
2021/06/01 06:18:03;;;;;;;0.30;0.25;;;19.10;48.00;;;;;;5010782;28;20381;-77
2021/06/01 06:20:31;;;;;;;0.60;0.40;;;19.00;48.70;;;;;;5020372;28;20056;-77
2021/06/01 06:22:57;;;;;;;0.50;0.28;;;19.10;48.70;;;;;;5020254;28;20026;-77
2021/06/01 06:25:23;;;;;;;0.30;0.30;;;19.00;48.40;;;;;;5021796;28;20127;-77
2021/06/01 06:27:48;;;;;;;0.30;0.20;;;19.00;49.60;;;;;;5023340;28;20041;-77
2021/06/01 06:30:15;;;;;;;0.32;0.30;;;19.10;48.90;;;;;;5038142;28;20052;-77
2021/06/01 06:32:41;;;;;;;0.68;0.28;;;19.10;48.90;;;;;;5020084;28;20100;-77
2021/06/01 06:35:07;;;;;;;0.32;0.20;;;19.10;49.40;;;;;;5022547;28;20037;-76
2021/06/01 06:37:33;;;;;;;0.20;0.20;;;19.10;49.60;;;;;;5020910;28;20526;-77
2021/06/01 06:39:59;;;;;;;0.40;0.22;;;19.00;49.90;;;;;;5021538;28;20029;-77
2021/06/01 06:42:25;;;;;;;0.40;0.30;;;19.20;50.20;;;;;;5022257;28;20044;-77
2021/06/01 06:44:52;;;;;;;0.30;0.20;;;19.30;49.80;;;;;;5018619;28;20032;-76
2021/06/01 06:49:45;;;;;;;0.63;0.30;;;19.50;50.00;;;;;;5025506;28;20063;-76
2021/06/01 06:52:12;;;;;;;0.20;0.20;;;19.50;48.70;;;;;;5032353;28;20053;-76
2021/06/01 06:54:38;;;;;;;0.20;0.20;;;19.60;49.20;;;;;;5022200;28;20041;-76
2021/06/01 06:57:05;;;;;;;0.40;0.30;;;19.80;49.30;;;;;;5015508;28;20029;-76
2021/06/01 06:59:31;;;;;;;0.30;0.20;;;19.80;48.90;;;;;;5016629;28;20179;-76
2021/06/01 07:01:56;;;;;;;0.30;0.20;;;19.90;48.90;;;;;;5015976;28;20060;-77
2021/06/01 07:04:24;;;;;;;0.22;0.20;;;20.00;48.90;;;;;;5016478;28;20026;-77
2021/06/01 07:06:49;;;;;;;0.30;0.20;;;20.10;48.00;;;;;;5016067;28;20038;-77
2021/06/01 07:09:15;;;;;;;0.20;0.20;;;20.20;47.90;;;;;;5026817;28;20036;-76
2021/06/01 07:11:42;;;;;;;0.40;0.30;;;20.20;47.10;;;;;;5035452;28;20029;-76
2021/06/01 07:14:11;;;;;;;0.38;0.20;;;20.30;47.00;;;;;;5032241;28;20030;-76
2021/06/01 07:16:38;;;;;;;0.30;0.20;;;20.50;46.30;;;;;;5035192;28;20025;-76
2021/06/01 07:19:04;;;;;;;0.75;0.20;;;20.80;45.80;;;;;;5036197;28;20026;-76
2021/06/01 07:21:30;;;;;;;0.47;0.20;;;21.70;44.70;;;;;;5035328;28;20082;-77
2021/06/01 07:23:57;;;;;;;0.93;0.30;;;23.50;41.90;;;;;;5035224;28;20112;-77
2021/06/01 07:26:22;;;;;;;0.30;0.20;;;26.40;35.70;;;;;;5034615;28;20025;-77
2021/06/01 07:28:48;;;;;;;0.68;0.20;;;28.90;32.40;;;;;;5030670;28;20055;-77
2021/06/01 07:31:15;;;;;;;0.10;0.10;;;31.20;29.20;;;;;;5016673;28;20036;-77
2021/06/01 07:33:41;;;;;;;0.17;0.10;;;32.10;27.50;;;;;;5025279;28;20095;-77
2021/06/01 07:36:08;;;;;;;0.40;0.10;;;32.70;26.40;;;;;;5036055;28;20423;-77
2021/06/01 07:38:35;;;;;;;0.10;0.10;;;33.30;25.80;;;;;;5026127;28;20036;-78
2021/06/01 07:41:03;;;;;;;0.17;0.10;;;33.40;25.30;;;;;;5035431;28;20056;-77
2021/06/01 07:43:29;;;;;;;0.20;0.10;;;34.10;24.00;;;;;;5021492;28;20605;-78
2021/06/01 07:45:55;;;;;;;0.20;0.10;;;34.30;23.70;;;;;;5034502;28;20061;-79
2021/06/01 07:48:21;;;;;;;0.10;0.10;;;34.30;23.90;;;;;;5023737;28;20120;-79
2021/06/01 07:50:47;;;;;;;0.45;0.10;;;34.60;23.60;;;;;;5031092;28;20029;-78
2021/06/01 07:53:13;;;;;;;0.10;0.10;;;35.40;24.10;;;;;;5023309;28;20507;-78
2021/06/01 07:55:39;;;;;;;0.20;0.10;;;34.70;22.90;;;;;;5026908;28;20526;-78
2021/06/01 07:58:04;;;;;;;0.10;0.10;;;34.90;22.70;;;;;;5034922;28;20056;-79
2021/06/01 08:00:30;;;;;;;0.30;0.10;;;35.30;22.90;;;;;;5034311;28;20030;-78
2021/06/01 08:02:56;;;;;;;0.43;0.10;;;35.90;22.90;;;;;;5032922;28;20036;-78
2021/06/01 08:05:23;;;;;;;0.43;0.10;;;36.60;22.40;;;;;;5035295;28;20400;-78
2021/06/01 08:07:49;;;;;;;0.22;0.10;;;36.80;22.10;;;;;;5035135;28;20034;-79
2021/06/01 08:10:18;;;;;;;0.20;0.10;;;36.30;22.10;;;;;;5034352;28;20026;-78
2021/06/01 08:12:48;;;;;;;0.10;0.10;;;36.30;23.20;;;;;;5034522;28;20061;-79
2021/06/01 08:15:14;;;;;;;0.17;0.10;;;36.30;22.30;;;;;;5029549;28;20029;-79
2021/06/01 08:17:40;;;;;;;0.30;0.10;;;36.20;23.50;;;;;;5025617;28;20527;-79
2021/06/01 08:20:13;;;;;;;0.10;0.10;;;36.30;22.40;;;;;;5020312;28;20561;-77
2021/06/01 08:22:40;;;;;;;0.17;0.10;;;37.00;22.10;;;;;;5024262;28;20496;-76
2021/06/01 08:25:07;;;;;;;0.38;0.10;;;36.60;22.30;;;;;;5028962;28;20029;-78
2021/06/01 08:27:32;;;;;;;0.70;0.20;;;37.40;21.60;;;;;;5027222;28;20029;-78
2021/06/01 08:29:58;;;;;;;0.28;0.10;;;38.10;22.30;;;;;;5022799;28;20499;-78
2021/06/01 08:32:25;;;;;;;0.40;0.20;;;37.80;22.40;;;;;;5023593;28;20026;-78
2021/06/01 08:34:50;;;;;;;0.17;0.10;;;38.10;20.70;;;;;;5022609;28;20059;-78
2021/06/01 08:37:16;;;;;;;0.08;0.05;;;38.70;21.30;;;;;;5025896;28;20114;-78
2021/06/01 08:39:42;;;;;;;0.32;0.20;;;37.80;20.70;;;;;;5032824;28;20078;-78
2021/06/01 08:42:08;;;;;;;0.10;0.10;;;38.20;21.90;;;;;;5031723;28;20029;-78
2021/06/01 08:44:33;;;;;;;0.68;0.40;;;37.50;21.00;;;;;;5033818;28;20495;-78
2021/06/01 08:47:01;;;;;;;0.10;0.10;;;38.30;21.20;;;;;;5031798;28;20455;-79
2021/06/01 08:49:27;;;;;;;0.43;0.10;;;38.10;20.00;;;;;;5034143;28;20214;-78
2021/06/01 08:51:53;;;;;;;0.10;0.10;;;37.90;20.10;;;;;;5032888;28;20125;-79
2021/06/01 08:54:19;;;;;;;0.10;0.10;;;37.70;20.60;;;;;;5034479;28;20036;-79
2021/06/01 08:56:45;;;;;;;0.20;0.10;;;37.50;20.40;;;;;;5050184;28;20026;-79
2021/06/01 08:59:12;;;;;;;0.20;0.10;;;37.30;21.50;;;;;;5051655;28;20514;-79
2021/06/01 09:01:37;;;;;;;0.10;0.10;;;37.40;20.30;;;;;;5053862;28;20722;-79
2021/06/01 09:04:11;;;;;;;0.30;0.10;;;37.60;21.70;;;;;;5048915;28;20039;-79
2021/06/01 09:06:57;;;;;;;0.10;0.10;;;38.50;21.60;;;;;;5048335;28;20091;-78
2021/06/01 09:23:04;;;;;;;0.20;0.10;;;37.80;20.60;;;;;;5052306;28;20114;-79
2021/06/01 09:28:03;;;;;;;0.40;0.10;;;37.70;20.60;;;;;;5043089;28;20036;-79
2021/06/01 09:30:59;;;;;;;0.15;0.10;;;37.70;20.70;;;;;;5031836;28;20820;-79
2021/06/01 09:33:32;;;;;;;0.22;0.10;;;37.30;20.60;;;;;;5053060;28;20033;-78
2021/06/01 09:36:02;;;;;;;0.10;0.10;;;37.20;20.80;;;;;;5050909;28;20029;-79
2021/06/01 09:38:36;;;;;;;0.17;0.10;;;37.10;21.10;;;;;;5046197;28;20021;-78
2021/06/01 09:41:12;;;;;;;0.20;0.10;;;37.40;21.10;;;;;;5050361;28;20517;-79
2021/06/01 09:43:55;;;;;;;0.30;0.10;;;37.30;20.70;;;;;;5052831;28;20028;-79
2021/06/01 09:46:38;;;;;;;0.17;0.10;;;37.00;21.60;;;;;;5052714;28;20035;-79
2021/06/01 09:49:13;;;;;;;0.32;0.17;;;37.00;21.00;;;;;;5040546;28;20034;-79
2021/06/01 09:51:54;;;;;;;0.10;0.10;;;36.80;20.50;;;;;;5032394;28;20037;-79
2021/06/01 09:54:45;;;;;;;0.10;0.10;;;36.80;21.50;;;;;;5030226;28;20029;-79
2021/06/01 09:57:27;;;;;;;0.10;0.10;;;36.80;21.20;;;;;;5043737;28;20075;-78
2021/06/01 10:00:16;;;;;;;0.10;0.10;;;37.50;21.00;;;;;;5033062;28;20067;-79
2021/06/01 10:02:44;;;;;;;0.30;0.10;;;37.70;21.30;;;;;;5032549;28;20499;-79
2021/06/01 10:05:22;;;;;;;0.28;0.10;;;37.50;20.80;;;;;;5046221;28;20025;-79
2021/06/01 10:07:52;;;;;;;0.28;0.10;;;36.80;21.60;;;;;;5052734;28;20067;-80
2021/06/01 10:10:32;;;;;;;0.13;0.10;;;36.60;21.60;;;;;;5042607;28;20582;-80
2021/06/01 10:13:01;;;;;;;0.10;0.10;;;36.60;21.80;;;;;;5040982;28;20063;-79
2021/06/01 10:15:29;;;;;;;0.10;0.10;;;36.20;22.20;;;;;;5059263;28;20032;-80
2021/06/01 10:17:55;;;;;;;0.30;0.10;;;36.00;21.80;;;;;;5032588;28;20040;-78
2021/06/01 10:20:23;;;;;;;0.10;0.10;;;35.60;22.30;;;;;;5039163;28;20025;-80
2021/06/01 10:22:50;;;;;;;0.10;0.10;;;35.50;22.30;;;;;;5030420;28;20395;-79
2021/06/01 10:25:17;;;;;;;0.20;0.10;;;35.30;22.10;;;;;;5032548;28;20036;-78
2021/06/01 10:27:43;;;;;;;0.30;0.10;;;34.60;23.60;;;;;;5040713;28;20025;-78
2021/06/01 10:30:11;;;;;;;0.10;0.10;;;34.50;23.90;;;;;;5048292;28;20029;-78
2021/06/01 10:32:40;;;;;;;0.90;0.10;;;34.30;25.00;;;;;;5045722;28;20029;-78
2021/06/01 10:35:09;;;;;;;0.52;0.10;;;34.30;26.60;;;;;;5036458;28;20033;-77
2021/06/01 10:52:09;;;;;;;0.38;0.10;;;31.80;30.70;;;;;;5047766;28;20041;-77
2021/06/01 10:54:42;;;;;;;0.60;0.10;;;31.50;29.40;;;;;;5044742;28;20047;-77
2021/06/01 10:57:09;;;;;;;0.93;0.00;;;31.30;30.50;;;;;;5053988;28;20044;-75
2021/06/01 11:02:32;;;;;;;0.75;0.15;;;30.60;30.00;;;;;;5043623;28;20035;-76
2021/06/01 11:05:12;;;;;;;0.13;0.10;;;30.60;29.70;;;;;;5044816;28;20017;-76
2021/06/01 11:07:54;;;;;;;0.08;0.00;;;30.30;29.50;;;;;;5041111;28;20029;-76
2021/06/01 11:10:42;;;;;;;0.05;0.05;;;30.40;30.50;;;;;;5044904;28;20033;-76
2021/06/01 11:13:10;;;;;;;0.28;0.10;;;30.50;30.00;;;;;;5052350;28;20032;-75
2021/06/01 11:15:40;;;;;;;0.20;0.10;;;30.50;30.60;;;;;;5042653;28;20399;-76
2021/06/01 11:18:14;;;;;;;0.28;0.10;;;30.50;31.80;;;;;;5044708;28;20514;-76
2021/06/01 11:21:05;;;;;;;0.10;0.00;;;30.60;30.10;;;;;;5044896;28;20029;-74
2021/06/01 11:23:46;;;;;;;0.20;0.10;;;30.40;31.30;;;;;;5046414;28;20048;-75
2021/06/01 11:34:37;;;;;;;0.20;0.10;;;29.70;30.80;;;;;;5040075;28;20052;-78
2021/06/01 11:37:09;;;;;;;0.10;0.10;;;30.00;32.10;;;;;;5045429;28;20128;-78
2021/06/01 11:39:58;;;;;;;0.20;0.10;;;30.00;31.90;;;;;;5039794;28;20091;-78
2021/06/01 11:45:08;;;;;;;0.05;0.05;;;30.10;31.40;;;;;;5044861;28;20248;-78
2021/06/01 11:47:55;;;;;;;0.30;0.10;;;30.10;31.10;;;;;;5047594;28;20025;-79
2021/06/01 11:53:05;;;;;;;0.30;0.10;;;30.00;30.50;;;;;;5042233;28;20055;-80
2021/06/01 11:55:30;;;;;;;0.08;0.03;;;30.00;32.10;;;;;;5044127;28;20021;-80
2021/06/01 12:03:59;;;;;;;0.10;0.10;;;30.00;30.70;;;;;;5050736;28;20750;-81
2021/06/01 12:12:11;;;;;;;0.05;0.00;;;30.10;32.90;;;;;;5051150;28;20028;-81
2021/06/01 12:17:52;;;;;;;0.10;0.10;;;30.20;33.10;;;;;;5055287;28;20059;-81
2021/06/01 12:20:18;;;;;;;0.10;0.10;;;30.10;32.00;;;;;;5053387;28;20480;-81
2021/06/01 12:22:44;;;;;;;0.00;0.00;;;30.00;31.30;;;;;;5053612;28;20017;-80
2021/06/01 12:25:11;;;;;;;0.00;0.00;;;30.00;32.20;;;;;;5054937;28;20698;-80
2021/06/01 12:30:59;;;;;;;0.45;0.10;;;30.20;32.70;;;;;;5046904;28;20049;-80
2021/06/01 12:33:24;;;;;;;0.10;0.00;;;30.20;32.10;;;;;;5054941;28;20025;-80
2021/06/01 12:44:13;;;;;;;0.00;0.00;;;30.10;33.80;;;;;;5050456;28;20112;-79
2021/06/01 12:46:59;;;;;;;0.15;0.10;;;30.20;32.20;;;;;;5033803;28;20033;-78
2021/06/01 13:12:11;;;;;;;0.08;0.08;;;29.90;31.80;;;;;;5047458;28;20040;-79
2021/06/01 13:46:05;;;;;;;0.20;0.10;;;30.70;31.80;;;;;;5050703;28;20167;-80
2021/06/01 13:59:11;;;;;;;0.00;0.00;;;30.30;32.30;;;;;;5042067;28;20033;-79
2021/06/01 14:21:02;;;;;;;0.00;0.00;;;30.80;33.10;;;;;;5049482;28;20051;-80
2021/06/01 14:31:52;;;;;;;0.32;0.10;;;30.80;32.00;;;;;;5048679;28;20075;-78
2021/06/01 15:49:46;;;;;;;0.20;0.08;;;30.20;34.50;;;;;;5033476;28;20075;-78
2021/06/01 16:43:53;;;;;;;0.03;0.00;;;29.80;35.20;;;;;;5045936;28;20114;-79
2021/06/01 17:03:14;;;;;;;0.10;0.05;;;29.30;37.20;;;;;;5041213;28;20048;-78
2021/06/01 17:05:52;;;;;;;0.10;0.00;;;29.30;37.00;;;;;;5041527;28;20033;-78
2021/06/01 17:13:31;;;;;;;0.05;0.05;;;29.40;37.20;;;;;;5034742;28;20136;-78
2021/06/01 17:15:57;;;;;;;0.00;0.00;;;29.30;36.50;;;;;;5041009;28;20017;-85
2021/06/01 17:35:03;;;;;;;0.60;0.15;;;29.20;37.60;;;;;;5052424;28;20056;-81
2021/06/01 17:37:29;;;;;;;0.17;0.10;;;29.00;37.00;;;;;;5045387;28;20024;-81
2021/06/01 17:39:55;;;;;;;0.13;0.10;;;29.00;37.00;;;;;;5038449;28;20094;-81
2021/06/01 17:42:27;;;;;;;0.10;0.10;;;29.00;36.70;;;;;;5048322;28;20387;-81
2021/06/01 17:44:57;;;;;;;0.20;0.10;;;29.00;36.90;;;;;;5053516;28;20568;-81
2021/06/01 17:47:26;;;;;;;0.17;0.10;;;28.90;37.20;;;;;;5049792;28;20025;-82
2021/06/01 17:49:53;;;;;;;0.00;0.00;;;28.90;37.70;;;;;;5047221;28;20808;-83
2021/06/01 17:52:26;;;;;;;0.20;0.10;;;28.90;37.60;;;;;;5044417;28;20046;-83
2021/06/01 17:54:53;;;;;;;0.20;0.10;;;28.90;36.90;;;;;;5037675;28;20068;-82
2021/06/01 17:57:21;;;;;;;0.75;0.10;;;28.80;36.90;;;;;;5043556;28;20035;-81
2021/06/01 17:59:48;;;;;;;0.08;0.08;;;28.80;38.20;;;;;;5048511;28;20030;-82
2021/06/01 18:02:17;;;;;;;0.40;0.10;;;28.70;37.40;;;;;;5033704;28;20032;-81
2021/06/01 18:04:45;;;;;;;0.13;0.10;;;28.60;37.60;;;;;;5034733;28;20037;-81
2021/06/01 18:07:20;;;;;;;0.10;0.10;;;28.60;38.70;;;;;;5050035;28;20033;-81
2021/06/01 18:40:44;;;;;;;0.10;0.00;;;28.20;40.50;;;;;;5036762;28;20140;-81
2021/06/01 18:42:58;;;;;;;0.17;0.10;;;28.10;40.90;;;;;;5037228;28;20025;-83
2021/06/01 19:21:54;;;;;;;0.00;0.00;;;27.60;41.80;;;;;;5043825;28;20043;-83
2021/06/01 19:49:55;;;;;;;0.08;0.08;;;27.30;43.00;;;;;;5044608;28;20204;-81
2021/06/01 19:51:53;;;;;;;0.20;0.10;;;27.30;42.80;;;;;;5044849;28;20041;-81
2021/06/01 19:54:22;;;;;;;0.10;0.10;;;27.20;43.20;;;;;;5036870;28;20025;-81
2021/06/01 19:56:48;;;;;;;0.03;0.03;;;27.20;43.20;;;;;;5043251;28;20169;-81
2021/06/01 19:59:17;;;;;;;0.20;0.10;;;27.20;43.60;;;;;;5044185;28;20033;-82
2021/06/01 20:01:49;;;;;;;0.10;0.10;;;27.20;44.00;;;;;;5041991;28;20110;-81
2021/06/01 20:04:15;;;;;;;0.32;0.10;;;27.10;43.60;;;;;;5042251;28;20021;-81
2021/06/01 20:06:41;;;;;;;0.22;0.10;;;27.10;44.20;;;;;;5044666;28;20398;-81
2021/06/01 20:09:07;;;;;;;0.10;0.10;;;27.10;43.90;;;;;;5043634;28;20021;-81
2021/06/01 20:11:36;;;;;;;0.10;0.10;;;27.00;43.60;;;;;;5043465;28;20056;-81
2021/06/01 20:14:02;;;;;;;0.10;0.08;;;27.00;43.50;;;;;;5048545;28;20025;-82
2021/06/01 20:16:31;;;;;;;1.23;0.10;;;26.90;44.50;;;;;;5046017;28;20027;-80
2021/06/01 20:19:04;;;;;;;0.10;0.10;;;26.90;43.90;;;;;;5044180;28;20017;-80